URKKURKA

Guest
Details From URKK - PASHKOVSKIY
To URKA - Vityazevo
Flight Number -
Tags generated
Created
Modified
Stats Distance 77 nm / 143 km
Max Altitude 0 ft / 0 m
Waypoints 3
Social Downloads 1
Likes 0
Share VATSIM

Download

Looking for another format? Having issues loading an existing format? Contact us
Advertisement - Login to hide

Notes

Basic altitude profile: - Ascent Rate: 2500ft/min - Ascent Speed: 250kts - Cruise Altitude: 35000ft - Cruise Speed: 420kts - Descent Rate: 1500ft/min - Descent Speed: 250kts Options: - Use NATs: yes - Use PACOTS: yes - Use low airways: no - Use high airways: yes

Route

URKK NODMI URKA

ID Type Via Altitude Latitude Longitude Leg Dist Tot Dist Heading (true) Name
O URKK APT - 0 ft / 0 m 45.03464˚ 39.17045˚ - 0 nm - PASHKOVSKIY
NODMI FIX - 0 ft / 0 m 45.03500˚ 39.17000˚ 0 nm 0 nm 318° / 318° -
O URKA APT - 0 ft / 0 m 45.00190˚ 37.34761˚ 77 nm 77 nm 269° / 268° Vityazevo

Altitude Profile

Advertisement - Login to hide

URKK

Details ICAO URKK (KRR)
Name PASHKOVSKIY
Region Russia
Timezone Europe/Moscow (UTC+3.0)
Stats Elevation 118 ft / 36 m (AMSL)
Location 45.034644° 39.170454°
Runways 2
Magnetic Variation 7.355° E

METAR

URKK 122000Z 13001MPS CAVOK 04/01 Q1022 R23L/CLRD70 NOSIG RMK QFE763

Decode

TAF

TAF URKK 121655Z 1218/1318 16003G08MPS 9999 SCT030 TEMPO 1218/1306 3100 BR SCT011 SCT020

Decode

Departure Runways

ID Width Length Bearing (true) Bearing (mag) Surface Threshold Offset Overrun Length
05L 160 ft / 49 m 7,177 ft / 2,187 m 52.37° 45.02° Asphalt 0 ft / 0 m 160 ft / 49 m
05R 145 ft / 44 m 9,822 ft / 2,994 m 52.45° 45.10° Concrete 0 ft / 0 m 160 ft / 49 m
23L 145 ft / 44 m 9,822 ft / 2,994 m 232.47° 225.12° Concrete 0 ft / 0 m 160 ft / 49 m
23R 160 ft / 49 m 7,177 ft / 2,187 m 232.38° 225.03° Asphalt 0 ft / 0 m 160 ft / 49 m

URKA

Details ICAO URKA (AAQ)
Name Vityazevo
Region Russia
Timezone Europe/Moscow (UTC+3.0)
Stats Elevation 173 ft / 53 m (AMSL)
Location 45.001895° 37.347609°
Runways 2
Magnetic Variation 7.171° E

METAR

URKA 122000Z AUTO 19006MPS 6000 // NCD 11/10 Q1021 RMK QFE762/1016

Decode

TAF

TAF AMD TAF AMD URKA 121851Z 1218/1318 CNL

Decode

Destination Runways

ID Width Length Bearing (true) Bearing (mag) Surface Threshold Offset Overrun Length
04 138 ft / 42 m 7,961 ft / 2,426 m 43.79° 36.62° Concrete 0 ft / 0 m 157 ft / 48 m
04R 312 ft / 95 m 8,009 ft / 2,441 m 43.78° 36.61° Grass 0 ft / 0 m 0 ft / 0 m
22 138 ft / 42 m 7,961 ft / 2,426 m 223.81° 216.64° Concrete 0 ft / 0 m 164 ft / 50 m
22L 312 ft / 95 m 8,009 ft / 2,441 m 223.80° 216.63° Grass 0 ft / 0 m 0 ft / 0 m

Popular Alternatives